Time;durP1;ratioP1;P1;durP2;ratioP2;P2;SDS_P1;SDS_P2;PMS_P1;PMS_P2;Temp;Humidity;BMP_temperature;BMP_pressure;BME280_temperature;BME280_humidity;BME280_pressure;Samples;Min_cycle;Max_cycle;Signal;HPM_P1;HPM_P2
2021/04/08 00:02:01;;;;;;;9.30;6.43;;;1.50;88.20;;;;;;6329911;22;20024;-89
2021/04/08 00:04:27;;;;;;;13.80;6.90;;;1.50;88.20;;;;;;6329225;22;20003;-89
2021/04/08 00:06:53;;;;;;;9.95;6.35;;;1.50;88.30;;;;;;6354885;22;20002;-89
2021/04/08 00:09:18;;;;;;;9.82;6.82;;;1.40;88.20;;;;;;6347565;22;20006;-89
2021/04/08 00:11:44;;;;;;;12.68;6.35;;;1.40;88.30;;;;;;6340019;22;19999;-90
2021/04/08 00:14:11;;;;;;;12.15;6.55;;;1.40;88.40;;;;;;6339831;22;20006;-89
2021/04/08 00:16:37;;;;;;;10.95;6.60;;;1.40;88.50;;;;;;6312754;22;20019;-89
2021/04/08 00:19:06;;;;;;;11.50;6.38;;;1.40;88.50;;;;;;6338791;22;20090;-90
2021/04/08 00:21:32;;;;;;;11.27;6.05;;;1.40;88.50;;;;;;6312944;22;19998;-90
2021/04/08 00:23:57;;;;;;;13.85;6.95;;;1.40;88.50;;;;;;6340112;22;20086;-89
2021/04/08 00:26:23;;;;;;;14.90;6.90;;;1.40;88.60;;;;;;6338619;22;20003;-89
2021/04/08 00:28:49;;;;;;;8.90;5.65;;;1.40;88.60;;;;;;6338671;22;20076;-90
2021/04/08 00:31:14;;;;;;;8.20;5.47;;;1.30;88.60;;;;;;6340506;22;20059;-89
2021/04/08 00:33:40;;;;;;;11.32;5.32;;;1.30;88.70;;;;;;6313629;22;20026;-89
2021/04/08 00:36:06;;;;;;;11.27;7.00;;;1.30;88.70;;;;;;6339459;22;20002;-89
2021/04/08 00:38:31;;;;;;;10.15;6.50;;;1.30;88.80;;;;;;6338701;22;20081;-89
2021/04/08 00:40:57;;;;;;;10.90;7.07;;;1.30;89.00;;;;;;6338857;22;20002;-89
2021/04/08 00:43:23;;;;;;;12.70;7.00;;;1.20;89.00;;;;;;6338890;22;20003;-89
2021/04/08 00:45:49;;;;;;;12.88;6.85;;;1.20;88.90;;;;;;6340610;22;19995;-89
2021/04/08 00:48:14;;;;;;;10.20;6.95;;;1.10;89.10;;;;;;6339768;22;20007;-89
2021/04/08 00:50:40;;;;;;;13.13;8.02;;;1.10;89.30;;;;;;6338883;22;20003;-89
2021/04/08 00:53:08;;;;;;;8.50;5.70;;;1.10;89.50;;;;;;6340452;22;19995;-89
2021/04/08 00:55:43;;;;;;;11.27;7.57;;;1.00;89.40;;;;;;6340353;22;19999;-90
2021/04/08 00:58:10;;;;;;;11.20;7.10;;;1.00;90.00;;;;;;6312504;22;20482;-89
2021/04/08 01:00:39;;;;;;;11.60;7.32;;;1.00;89.60;;;;;;6312791;22;20026;-89
2021/04/08 01:03:08;;;;;;;15.07;8.23;;;1.00;89.90;;;;;;6312617;22;20441;-89
2021/04/08 01:05:34;;;;;;;12.82;7.97;;;0.90;89.80;;;;;;6312410;22;20002;-89
2021/04/08 01:08:00;;;;;;;13.55;7.90;;;0.90;89.90;;;;;;6341739;22;19999;-89
2021/04/08 01:10:27;;;;;;;16.92;7.60;;;0.90;89.90;;;;;;6341609;22;20427;-90
2021/04/08 01:12:58;;;;;;;15.20;8.90;;;0.90;89.90;;;;;;6314657;22;20411;-90
2021/04/08 01:15:24;;;;;;;14.20;8.00;;;0.90;90.00;;;;;;6342206;22;20094;-89
2021/04/08 01:18:19;;;;;;;15.13;7.82;;;0.80;90.00;;;;;;6340377;22;19999;-89
2021/04/08 01:21:02;;;;;;;9.93;6.32;;;0.80;90.10;;;;;;6319764;22;20030;-89
2021/04/08 01:23:49;;;;;;;12.20;7.53;;;0.80;90.10;;;;;;6314510;22;19998;-89
2021/04/08 01:26:40;;;;;;;11.55;7.40;;;0.70;90.20;;;;;;6314328;22;20034;-89
2021/04/08 01:29:28;;;;;;;12.52;8.10;;;0.70;90.20;;;;;;6341557;22;19999;-89
2021/04/08 01:31:54;;;;;;;13.52;8.27;;;0.70;90.40;;;;;;6342102;22;19995;-90
2021/04/08 01:34:23;;;;;;;12.95;8.23;;;0.60;90.40;;;;;;6341359;22;20304;-89
2021/04/08 01:36:55;;;;;;;14.18;8.07;;;0.60;90.40;;;;;;6315457;22;19995;-90
2021/04/08 01:39:22;;;;;;;14.38;8.10;;;0.60;90.40;;;;;;6329828;22;20007;-89
2021/04/08 01:41:49;;;;;;;12.95;8.65;;;0.60;90.40;;;;;;6332327;22;19999;-89
2021/04/08 01:44:18;;;;;;;15.63;9.00;;;0.50;90.50;;;;;;6357629;22;20006;-89
2021/04/08 01:46:45;;;;;;;20.88;11.00;;;0.60;90.60;;;;;;6332316;22;19995;-89
2021/04/08 01:49:16;;;;;;;19.63;10.43;;;0.60;90.60;;;;;;6344879;22;20003;-89
2021/04/08 01:51:42;;;;;;;20.88;10.27;;;0.60;90.80;;;;;;6342258;22;20019;-89
2021/04/08 01:54:08;;;;;;;19.95;9.50;;;0.60;90.80;;;;;;6314214;22;19995;-89
2021/04/08 01:56:37;;;;;;;14.35;7.55;;;0.60;90.70;;;;;;6314487;22;20090;-89
2021/04/08 01:59:04;;;;;;;11.23;6.28;;;0.60;90.70;;;;;;6314178;22;20003;-89
2021/04/08 02:01:32;;;;;;;12.70;6.65;;;0.70;90.70;;;;;;6340932;22;20006;-89
2021/04/08 02:03:58;;;;;;;7.80;5.93;;;0.70;90.70;;;;;;6314248;22;20449;-89
2021/04/08 02:06:26;;;;;;;11.73;6.40;;;0.80;90.60;;;;;;6314059;22;20426;-89
2021/04/08 02:08:54;;;;;;;7.93;5.63;;;0.80;90.50;;;;;;6342901;22;19994;-89
2021/04/08 02:11:21;;;;;;;6.15;4.97;;;0.90;90.50;;;;;;6314764;22;20090;-89
2021/04/08 02:13:49;;;;;;;9.52;6.10;;;0.90;90.40;;;;;;6314520;22;20003;-88
2021/04/08 02:16:17;;;;;;;8.82;5.40;;;0.90;90.30;;;;;;6314418;22;20006;-89
2021/04/08 02:18:43;;;;;;;9.25;6.13;;;0.90;90.30;;;;;;6313933;22;20089;-89
2021/04/08 02:21:10;;;;;;;10.43;6.68;;;0.90;90.30;;;;;;6341445;22;20460;-89
2021/04/08 02:23:40;;;;;;;8.82;5.53;;;0.90;90.20;;;;;;6313923;22;20029;-89
2021/04/08 02:26:10;;;;;;;7.80;6.13;;;0.90;90.10;;;;;;6341263;22;20001;-89
2021/04/08 02:28:38;;;;;;;9.45;6.30;;;0.90;90.10;;;;;;6314260;22;20081;-89
2021/04/08 02:31:05;;;;;;;9.45;6.53;;;0.90;90.40;;;;;;6313949;22;19998;-89
2021/04/08 02:33:31;;;;;;;12.02;7.47;;;0.90;90.20;;;;;;6341084;22;19991;-89
2021/04/08 02:35:59;;;;;;;11.55;6.82;;;0.80;90.10;;;;;;6313623;22;20007;-89
2021/04/08 02:38:27;;;;;;;9.68;6.18;;;0.80;90.20;;;;;;6313575;22;20007;-90
2021/04/08 02:40:54;;;;;;;9.40;6.30;;;0.80;90.20;;;;;;6313514;22;19999;-89
2021/04/08 02:43:21;;;;;;;9.48;5.93;;;0.80;90.20;;;;;;6313580;22;20006;-89
2021/04/08 02:45:47;;;;;;;18.50;6.25;;;0.80;90.20;;;;;;6313631;22;20005;-89
2021/04/08 02:48:17;;;;;;;9.20;5.95;;;0.80;90.20;;;;;;6339809;22;20038;-88
2021/04/08 02:50:48;;;;;;;10.65;6.18;;;0.80;90.20;;;;;;6313643;22;20422;-89
2021/04/08 02:53:19;;;;;;;10.57;6.72;;;0.80;90.20;;;;;;6313662;22;20002;-89
2021/04/08 02:55:55;;;;;;;9.32;6.20;;;0.80;90.20;;;;;;6313503;22;19999;-89
2021/04/08 02:58:23;;;;;;;12.68;7.45;;;0.80;90.20;;;;;;6313636;22;20003;-89
2021/04/08 03:00:56;;;;;;;11.88;7.22;;;0.70;90.20;;;;;;6313406;22;20030;-89
2021/04/08 03:03:29;;;;;;;10.15;6.97;;;0.70;90.20;;;;;;6313405;22;20006;-89
2021/04/08 03:05:59;;;;;;;12.27;7.85;;;0.70;90.30;;;;;;6341028;22;20014;-89
2021/04/08 03:08:26;;;;;;;13.73;7.60;;;0.60;90.20;;;;;;6313558;22;19999;-90
2021/04/08 03:10:53;;;;;;;12.80;8.50;;;0.60;90.30;;;;;;6312810;22;20022;-89
2021/04/08 03:13:20;;;;;;;11.25;7.28;;;0.60;90.30;;;;;;6313207;22;19995;-90
2021/04/08 03:15:46;;;;;;;10.02;6.60;;;0.60;90.40;;;;;;6342733;22;20011;-88
2021/04/08 03:18:16;;;;;;;11.40;7.32;;;0.60;90.50;;;;;;6324749;22;20017;-88
2021/04/08 03:20:47;;;;;;;10.25;6.60;;;0.70;90.50;;;;;;6356157;22;19995;-88
2021/04/08 03:23:13;;;;;;;12.20;7.53;;;0.70;90.50;;;;;;6356480;22;19995;-88
2021/04/08 03:25:40;;;;;;;11.20;7.00;;;0.70;90.50;;;;;;6322709;22;20005;-88
2021/04/08 03:28:06;;;;;;;9.75;6.47;;;0.70;90.40;;;;;;6313647;22;20034;-88
2021/04/08 03:30:33;;;;;;;12.23;7.93;;;0.70;90.40;;;;;;6312956;22;19999;-88
2021/04/08 03:33:00;;;;;;;9.95;6.10;;;0.70;90.40;;;;;;6313427;22;20056;-88
2021/04/08 03:35:27;;;;;;;11.95;7.03;;;0.80;90.40;;;;;;6313732;22;19999;-88
2021/04/08 03:37:53;;;;;;;12.80;7.28;;;0.80;90.40;;;;;;6313086;22;20035;-89
2021/04/08 03:40:20;;;;;;;13.85;7.50;;;0.80;90.40;;;;;;6340754;22;20426;-88
2021/04/08 03:42:50;;;;;;;10.40;6.97;;;0.80;90.70;;;;;;6312939;22;20292;-89
2021/04/08 03:45:16;;;;;;;9.70;6.97;;;0.80;90.40;;;;;;6313671;22;20082;-88
2021/04/08 03:47:44;;;;;;;13.68;9.65;;;0.80;90.40;;;;;;6312903;22;20033;-88
2021/04/08 03:50:11;;;;;;;15.30;9.90;;;0.80;90.40;;;;;;6340772;22;19999;-88
2021/04/08 03:52:38;;;;;;;17.20;10.32;;;0.80;90.40;;;;;;6340182;22;20441;-89
2021/04/08 03:55:06;;;;;;;16.50;10.80;;;0.90;90.40;;;;;;6313713;22;19998;-89
2021/04/08 03:57:34;;;;;;;17.73;11.32;;;0.90;90.40;;;;;;6312867;22;19998;-88
2021/04/08 04:00:04;;;;;;;12.95;9.13;;;0.90;90.40;;;;;;6313486;22;20103;-89
2021/04/08 04:02:33;;;;;;;13.57;8.80;;;0.90;90.40;;;;;;6316552;22;20003;-89
2021/04/08 04:05:00;;;;;;;13.65;8.60;;;1.00;90.50;;;;;;6319016;22;20414;-90
2021/04/08 04:07:26;;;;;;;11.20;7.93;;;1.00;90.30;;;;;;6317039;22;20010;-89
2021/04/08 04:09:51;;;;;;;13.82;8.48;;;1.10;90.30;;;;;;6342892;22;20081;-89
2021/04/08 04:12:18;;;;;;;16.92;8.27;;;1.10;90.20;;;;;;6315856;22;20278;-89
2021/04/08 04:14:45;;;;;;;15.25;8.68;;;1.20;90.10;;;;;;6312601;22;20007;-89
2021/04/08 04:17:27;;;;;;;12.13;8.32;;;1.20;90.10;;;;;;6312978;22;20322;-89
2021/04/08 04:19:54;;;;;;;11.65;7.82;;;1.30;89.90;;;;;;6312662;22;20017;-89
2021/04/08 04:22:20;;;;;;;10.70;7.93;;;1.30;89.90;;;;;;6312602;22;20318;-89
2021/04/08 04:24:46;;;;;;;10.77;7.78;;;1.40;89.70;;;;;;6340036;22;20048;-89
2021/04/08 04:27:12;;;;;;;15.65;8.02;;;1.40;89.80;;;;;;6312143;22;20038;-89
2021/04/08 04:29:38;;;;;;;12.35;7.68;;;1.50;89.70;;;;;;6312841;22;20006;-89
2021/04/08 04:32:04;;;;;;;15.60;8.63;;;1.60;89.50;;;;;;6312348;22;20077;-89
2021/04/08 04:34:30;;;;;;;12.07;7.85;;;1.60;89.60;;;;;;6312677;22;19991;-89
2021/04/08 04:36:56;;;;;;;13.73;7.18;;;1.70;89.50;;;;;;6338780;22;20056;-89
2021/04/08 04:39:21;;;;;;;10.48;8.48;;;1.70;89.60;;;;;;6338481;22;20007;-89
2021/04/08 04:41:47;;;;;;;13.05;7.65;;;1.80;89.60;;;;;;6340543;22;20044;-89
2021/04/08 04:44:13;;;;;;;12.45;8.32;;;1.80;89.10;;;;;;6338795;22;20085;-89
2021/04/08 04:46:39;;;;;;;10.35;7.45;;;1.90;89.30;;;;;;6312605;22;20072;-89
2021/04/08 04:49:04;;;;;;;14.25;8.48;;;2.00;88.90;;;;;;6340709;22;20025;-89
2021/04/08 04:51:31;;;;;;;13.27;8.55;;;2.00;88.50;;;;;;6338717;22;20074;-89
2021/04/08 04:53:56;;;;;;;12.98;9.25;;;2.10;88.70;;;;;;6322176;22;20014;-90
2021/04/08 04:56:22;;;;;;;15.45;8.27;;;2.10;87.80;;;;;;6358870;22;20003;-88
2021/04/08 04:58:48;;;;;;;13.32;9.00;;;2.20;88.10;;;;;;6359946;22;20021;-88
2021/04/08 05:01:13;;;;;;;12.25;7.97;;;2.30;87.60;;;;;;6361178;22;19999;-89
2021/04/08 05:03:39;;;;;;;12.80;8.50;;;2.40;87.60;;;;;;6359312;22;20025;-89
2021/04/08 05:06:05;;;;;;;13.45;8.93;;;2.40;87.40;;;;;;6325243;22;19999;-90
2021/04/08 05:08:31;;;;;;;15.00;9.75;;;2.50;86.60;;;;;;6342429;22;20002;-90
2021/04/08 05:10:56;;;;;;;11.32;8.80;;;2.50;85.80;;;;;;6314408;22;20383;-89
2021/04/08 05:13:22;;;;;;;13.63;8.98;;;2.60;86.70;;;;;;6341002;22;20002;-90
2021/04/08 05:15:48;;;;;;;12.55;8.43;;;2.70;86.10;;;;;;6340294;22;20011;-89
2021/04/08 05:18:13;;;;;;;13.20;8.77;;;2.80;85.70;;;;;;6338940;22;20017;-89
2021/04/08 05:20:39;;;;;;;12.63;8.48;;;2.80;85.10;;;;;;6337118;22;19999;-89
2021/04/08 05:23:05;;;;;;;11.85;8.27;;;2.90;84.40;;;;;;6340252;22;20135;-89
2021/04/08 05:25:30;;;;;;;11.23;8.15;;;2.90;84.90;;;;;;6314198;22;20330;-90
2021/04/08 05:27:57;;;;;;;16.15;9.20;;;3.00;84.40;;;;;;6339394;22;20064;-90
2021/04/08 05:30:23;;;;;;;13.20;8.82;;;3.10;85.30;;;;;;6341021;22;20002;-90
2021/04/08 05:32:49;;;;;;;13.68;9.77;;;3.30;85.10;;;;;;6312600;22;20010;-90
2021/04/08 05:35:15;;;;;;;12.05;8.02;;;3.40;84.50;;;;;;6341662;22;20050;-90
2021/04/08 05:37:41;;;;;;;12.98;8.90;;;3.40;85.00;;;;;;6339546;22;20486;-90
2021/04/08 05:40:07;;;;;;;13.95;8.90;;;3.60;85.50;;;;;;6318831;22;20011;-90
2021/04/08 05:42:33;;;;;;;14.63;9.57;;;3.70;84.80;;;;;;6341094;22;20053;-91
2021/04/08 05:44:58;;;;;;;13.27;8.85;;;3.90;84.40;;;;;;6339500;22;20427;-89
2021/04/08 05:47:27;;;;;;;14.55;9.00;;;4.00;83.80;;;;;;6313705;22;19995;-89
2021/04/08 05:49:53;;;;;;;11.55;8.70;;;4.10;83.00;;;;;;6345478;22;19999;-89
2021/04/08 05:52:19;;;;;;;13.18;8.68;;;4.20;82.30;;;;;;6340003;22;20001;-88
2021/04/08 05:54:45;;;;;;;11.93;8.15;;;4.20;79.70;;;;;;6314200;22;20078;-90
2021/04/08 05:57:10;;;;;;;11.80;7.80;;;4.20;79.90;;;;;;6341322;22;20364;-89
2021/04/08 05:59:37;;;;;;;13.57;8.82;;;4.30;80.40;;;;;;6343279;22;20011;-89
2021/04/08 06:02:03;;;;;;;13.75;8.95;;;4.40;79.60;;;;;;6317377;22;20006;-90
2021/04/08 06:04:28;;;;;;;17.02;9.32;;;4.40;80.80;;;;;;6350632;22;19999;-90
2021/04/08 06:06:54;;;;;;;12.77;8.05;;;4.50;80.50;;;;;;6354126;22;19995;-90
2021/04/08 06:09:20;;;;;;;11.98;7.38;;;4.60;79.30;;;;;;6324860;22;20002;-89
2021/04/08 06:11:45;;;;;;;10.40;7.50;;;4.70;79.30;;;;;;6352512;22;19995;-89
2021/04/08 06:14:11;;;;;;;11.88;8.18;;;4.80;78.90;;;;;;6348597;22;19995;-88
2021/04/08 06:16:37;;;;;;;12.25;8.63;;;4.90;76.90;;;;;;6317118;22;20045;-89
2021/04/08 06:19:02;;;;;;;13.15;8.68;;;5.00;76.50;;;;;;6341828;22;20094;-88
2021/04/08 06:21:29;;;;;;;18.25;10.90;;;5.00;73.80;;;;;;6315814;22;20006;-89
2021/04/08 06:23:55;;;;;;;13.38;8.73;;;5.00;72.50;;;;;;6314439;22;20084;-89
2021/04/08 06:26:20;;;;;;;13.65;9.57;;;5.00;73.40;;;;;;6314102;22;19999;-89
2021/04/08 06:28:46;;;;;;;16.23;8.45;;;5.10;72.30;;;;;;6340667;22;20385;-90
2021/04/08 06:31:12;;;;;;;13.10;8.43;;;5.10;73.30;;;;;;6340830;22;19998;-89
2021/04/08 06:33:38;;;;;;;12.88;8.70;;;5.30;72.90;;;;;;6314409;22;20029;-89
2021/04/08 06:36:04;;;;;;;13.48;7.35;;;5.30;71.40;;;;;;6313756;22;19999;-89
2021/04/08 06:38:30;;;;;;;9.15;7.07;;;5.40;72.80;;;;;;6311670;22;20021;-89
2021/04/08 06:40:55;;;;;;;11.35;8.25;;;5.60;71.70;;;;;;6339101;22;20062;-89
2021/04/08 06:43:21;;;;;;;11.40;7.97;;;5.60;70.20;;;;;;6339298;22;20003;-89
2021/04/08 06:45:50;;;;;;;9.70;7.53;;;5.70;70.30;;;;;;6339125;22;20427;-91
2021/04/08 06:48:21;;;;;;;12.55;7.20;;;5.70;71.10;;;;;;6312245;22;20063;-88
2021/04/08 06:50:50;;;;;;;9.85;7.22;;;5.90;71.90;;;;;;6314748;22;20007;-88
2021/04/08 06:53:17;;;;;;;9.95;7.30;;;5.90;67.20;;;;;;6328132;22;20074;-89
2021/04/08 06:55:43;;;;;;;10.15;7.97;;;6.00;68.70;;;;;;6359815;22;20006;-89
2021/04/08 06:58:09;;;;;;;10.43;7.15;;;6.10;69.10;;;;;;6335393;22;20330;-89
2021/04/08 07:00:36;;;;;;;10.68;6.53;;;6.20;67.50;;;;;;6334051;22;20010;-90
2021/04/08 07:03:07;;;;;;;8.75;6.30;;;6.20;68.00;;;;;;6330391;22;20026;-89
2021/04/08 07:05:33;;;;;;;9.98;7.53;;;6.30;67.50;;;;;;6318930;22;19998;-89
2021/04/08 07:07:59;;;;;;;9.25;6.63;;;6.30;68.20;;;;;;6342248;22;20009;-90
2021/04/08 07:10:25;;;;;;;7.65;5.78;;;6.40;68.30;;;;;;6342937;22;20009;-90
2021/04/08 07:12:55;;;;;;;10.70;6.30;;;6.50;66.70;;;;;;6344356;22;19990;-90
2021/04/08 07:15:23;;;;;;;8.63;6.68;;;6.50;66.10;;;;;;6314442;22;20026;-90
2021/04/08 07:17:50;;;;;;;8.95;6.00;;;6.60;66.30;;;;;;6313676;22;20025;-90
2021/04/08 07:20:15;;;;;;;9.98;5.70;;;6.70;65.70;;;;;;6313800;22;20040;-90
2021/04/08 07:22:41;;;;;;;10.48;7.10;;;6.80;67.30;;;;;;6341667;22;20360;-89
2021/04/08 07:25:27;;;;;;;10.05;6.65;;;6.90;67.00;;;;;;6341578;22;19998;-90
2021/04/08 07:27:53;;;;;;;10.13;6.50;;;7.00;61.30;;;;;;6340390;22;20418;-89
2021/04/08 07:30:19;;;;;;;11.00;6.05;;;7.10;61.10;;;;;;6340936;22;20024;-90
2021/04/08 07:32:58;;;;;;;10.35;6.03;;;7.10;63.70;;;;;;6315355;22;20267;-90
2021/04/08 07:35:23;;;;;;;8.25;5.70;;;7.10;57.90;;;;;;6315486;22;19999;-89
2021/04/08 07:37:59;;;;;;;7.15;5.70;;;7.10;62.70;;;;;;6314630;22;20002;-89
2021/04/08 07:40:26;;;;;;;8.10;6.47;;;7.10;62.40;;;;;;6314780;22;20094;-90
2021/04/08 07:42:52;;;;;;;5.18;4.32;;;7.20;64.10;;;;;;6314046;22;20072;-90
2021/04/08 07:45:32;;;;;;;8.50;4.90;;;7.30;64.40;;;;;;6340861;22;20414;-90
2021/04/08 07:48:04;;;;;;;8.35;6.30;;;7.50;64.80;;;;;;6341047;22;20067;-90
2021/04/08 07:50:31;;;;;;;6.70;5.00;;;7.60;61.50;;;;;;6341280;22;19998;-91
2021/04/08 07:52:58;;;;;;;7.28;5.60;;;7.80;61.50;;;;;;6315682;22;20099;-89
2021/04/08 07:55:29;;;;;;;6.78;5.13;;;7.90;59.80;;;;;;6315904;22;20011;-90
2021/04/08 07:58:13;;;;;;;7.85;5.03;;;7.90;58.60;;;;;;6315699;22;20001;-89
2021/04/08 08:00:44;;;;;;;8.38;5.88;;;7.90;54.10;;;;;;6314571;22;20006;-89
2021/04/08 08:03:30;;;;;;;7.20;5.35;;;7.80;54.30;;;;;;6342290;22;20021;-89
2021/04/08 08:05:59;;;;;;;7.43;5.18;;;7.70;52.10;;;;;;6313483;22;20007;-90
2021/04/08 08:08:35;;;;;;;7.22;4.80;;;7.70;53.20;;;;;;6313979;22;20006;-90
2021/04/08 08:11:14;;;;;;;8.35;4.85;;;7.70;51.00;;;;;;6340849;22;20002;-90
2021/04/08 08:13:54;;;;;;;6.68;4.35;;;7.70;51.80;;;;;;6321502;22;20025;-89
2021/04/08 08:16:23;;;;;;;7.00;4.70;;;7.70;50.20;;;;;;6320047;22;20438;-91
2021/04/08 08:18:49;;;;;;;7.85;4.75;;;7.70;49.00;;;;;;6314430;22;20107;-90
2021/04/08 08:21:18;;;;;;;10.93;4.47;;;7.80;48.00;;;;;;6341689;22;19999;-90
2021/04/08 08:23:51;;;;;;;9.15;5.00;;;7.90;49.90;;;;;;6313746;22;20002;-90
2021/04/08 08:26:42;;;;;;;5.93;4.18;;;8.00;48.50;;;;;;6313484;22;20055;-91
2021/04/08 08:29:13;;;;;;;4.80;4.05;;;8.10;48.80;;;;;;6341412;22;19999;-90
2021/04/08 08:31:42;;;;;;;7.05;4.30;;;8.30;50.20;;;;;;6341020;22;20029;-91
2021/04/08 08:34:10;;;;;;;4.38;3.60;;;8.50;48.20;;;;;;6341261;22;19995;-91
2021/04/08 08:36:37;;;;;;;4.82;4.03;;;8.60;50.80;;;;;;6340651;22;20023;-90
2021/04/08 08:39:07;;;;;;;5.40;4.00;;;8.70;48.90;;;;;;6313009;22;20006;-91
2021/04/08 08:41:34;;;;;;;6.50;4.63;;;8.70;49.00;;;;;;6316498;22;20026;-90
2021/04/08 08:44:05;;;;;;;6.45;4.68;;;8.90;47.40;;;;;;6333423;22;20026;-90
2021/04/08 08:46:33;;;;;;;8.05;4.35;;;8.80;46.80;;;;;;6334702;22;19994;-88
2021/04/08 08:49:01;;;;;;;7.38;5.25;;;8.70;48.50;;;;;;6364342;22;20017;-91
2021/04/08 08:51:28;;;;;;;10.30;4.82;;;8.80;46.10;;;;;;6337739;22;20017;-90
2021/04/08 08:53:54;;;;;;;5.88;4.72;;;8.90;46.70;;;;;;6337630;22;19999;-90
2021/04/08 08:56:26;;;;;;;5.47;4.40;;;8.80;46.50;;;;;;6322924;22;20027;-91
2021/04/08 08:58:54;;;;;;;8.40;5.00;;;8.90;48.80;;;;;;6319575;22;20275;-90
2021/04/08 09:01:21;;;;;;;6.78;5.00;;;8.90;45.70;;;;;;6320536;22;20003;-91
2021/04/08 09:03:51;;;;;;;4.78;3.83;;;9.00;45.20;;;;;;6320407;22;20457;-90
2021/04/08 09:06:22;;;;;;;6.10;4.22;;;9.00;47.00;;;;;;6317497;22;20003;-90
2021/04/08 09:08:54;;;;;;;7.07;4.88;;;9.00;46.30;;;;;;6340550;22;19999;-90
2021/04/08 09:11:29;;;;;;;6.40;4.47;;;8.90;45.00;;;;;;6312226;22;19995;-89
2021/04/08 09:13:56;;;;;;;6.30;4.68;;;9.00;45.30;;;;;;6312740;22;20006;-89
2021/04/08 09:16:25;;;;;;;6.05;4.97;;;9.10;46.80;;;;;;6309542;22;20018;-90
2021/04/08 09:19:03;;;;;;;7.82;5.32;;;9.10;43.70;;;;;;6311766;22;20022;-89
2021/04/08 09:21:51;;;;;;;6.30;4.82;;;9.00;43.20;;;;;;6312689;22;20003;-91
2021/04/08 09:24:22;;;;;;;6.00;4.30;;;9.10;44.90;;;;;;6313073;22;19999;-90
2021/04/08 09:26:52;;;;;;;5.20;4.68;;;9.10;45.70;;;;;;6340630;22;20007;-91
2021/04/08 09:29:48;;;;;;;7.28;5.32;;;9.10;45.90;;;;;;6343136;22;20014;-90
2021/04/08 09:32:27;;;;;;;6.72;4.88;;;9.10;42.40;;;;;;6341549;22;19995;-91
2021/04/08 09:35:14;;;;;;;6.55;4.97;;;9.00;41.80;;;;;;6313386;22;20081;-91
2021/04/08 09:37:45;;;;;;;7.65;5.50;;;8.90;40.90;;;;;;6335809;22;20002;-90
2021/04/08 09:40:24;;;;;;;7.78;5.35;;;8.90;45.00;;;;;;6314249;22;20007;-91
2021/04/08 09:42:56;;;;;;;9.07;5.93;;;8.90;43.40;;;;;;6314560;22;20015;-91
2021/04/08 09:45:25;;;;;;;7.15;5.63;;;8.90;45.20;;;;;;6314226;22;20375;-91
2021/04/08 09:48:22;;;;;;;7.78;6.07;;;9.00;46.50;;;;;;6313999;22;20014;-90
2021/04/08 09:51:00;;;;;;;8.50;5.88;;;9.00;46.10;;;;;;6309636;22;20041;-91
2021/04/08 09:53:55;;;;;;;7.20;5.20;;;8.90;44.50;;;;;;6314442;22;19994;-92
2021/04/08 09:56:45;;;;;;;6.35;5.03;;;8.60;45.30;;;;;;6315106;22;19999;-89
2021/04/08 09:59:16;;;;;;;6.80;4.97;;;8.40;44.30;;;;;;6316657;22;20002;-91
2021/04/08 10:01:45;;;;;;;8.63;5.22;;;8.20;46.90;;;;;;6317889;22;20007;-91
2021/04/08 10:04:25;;;;;;;6.78;4.68;;;8.10;47.30;;;;;;6316634;22;19999;-90
2021/04/08 10:07:11;;;;;;;5.68;4.88;;;8.30;46.50;;;;;;6343613;22;20005;-88
2021/04/08 10:09:52;;;;;;;6.90;5.90;;;8.40;44.90;;;;;;6315045;22;20372;-88
2021/04/08 10:12:32;;;;;;;12.38;6.53;;;8.60;47.50;;;;;;6317985;22;20015;-90
2021/04/08 10:14:58;;;;;;;8.85;5.75;;;8.90;47.20;;;;;;6315648;22;20022;-90
2021/04/08 10:17:37;;;;;;;6.70;5.57;;;9.20;46.20;;;;;;6315925;22;20025;-90
2021/04/08 10:20:09;;;;;;;11.68;6.30;;;9.40;44.30;;;;;;6313762;22;20021;-89
2021/04/08 10:22:45;;;;;;;9.13;6.20;;;9.50;43.30;;;;;;6317709;22;19999;-90
2021/04/08 10:25:12;;;;;;;7.72;6.70;;;9.60;43.40;;;;;;6317708;22;20118;-90
2021/04/08 10:27:52;;;;;;;8.73;7.18;;;9.70;44.60;;;;;;6315328;22;20002;-91
2021/04/08 10:30:19;;;;;;;8.25;6.85;;;9.70;44.10;;;;;;6315850;22;20010;-89
2021/04/08 10:32:53;;;;;;;7.82;6.25;;;9.80;45.10;;;;;;6315976;22;20003;-91
2021/04/08 10:35:31;;;;;;;6.85;5.78;;;9.60;44.50;;;;;;6339007;22;20014;-91
2021/04/08 10:38:05;;;;;;;8.40;6.18;;;9.60;45.40;;;;;;6364173;22;20006;-92
2021/04/08 10:40:32;;;;;;;7.93;5.85;;;9.60;46.00;;;;;;6338125;22;20011;-88
2021/04/08 10:43:31;;;;;;;10.30;7.40;;;9.70;47.00;;;;;;6340175;22;20046;-95
2021/04/08 10:46:20;;;;;;;9.45;6.20;;;10.00;44.50;;;;;;6332962;22;20013;-90
2021/04/08 10:48:46;;;;;;;7.22;5.55;;;10.30;47.90;;;;;;6320628;22;20033;-91
2021/04/08 10:51:17;;;;;;;7.13;5.35;;;10.50;45.20;;;;;;6317710;22;20002;-90
2021/04/08 10:53:47;;;;;;;5.60;4.32;;;10.70;44.50;;;;;;6345868;22;19995;-91
2021/04/08 10:56:12;;;;;;;6.10;5.03;;;10.80;44.10;;;;;;6316915;22;20018;-90
2021/04/08 11:05:50;;;;;;;6.75;4.78;;;11.10;41.90;;;;;;6186888;23;20016;-93
2021/04/08 11:08:58;;;;;;;;;;;;;;;;;;;;;
2021/04/08 11:11:49;;;;;;;5.88;4.03;;;10.70;43.30;;;;;;6177140;23;20084;-91
2021/04/08 11:14:34;;;;;;;5.55;3.63;;;9.90;46.10;;;;;;6172453;23;20013;-93
2021/04/08 11:17:08;;;;;;;5.47;4.63;;;9.30;48.00;;;;;;6284620;22;20015;-92
2021/04/08 11:19:40;;;;;;;4.82;4.32;;;9.10;49.20;;;;;;6277869;22;20039;-92
2021/04/08 11:22:28;;;;;;;5.80;4.90;;;8.80;48.20;;;;;;6275891;22;20004;-93
2021/04/08 11:25:10;;;;;;;5.22;4.25;;;8.80;46.90;;;;;;6254971;22;20004;-93
2021/04/08 11:27:44;;;;;;;6.00;4.05;;;8.90;48.90;;;;;;6276629;22;20361;-93
2021/04/08 11:30:46;;;;;;;6.50;3.65;;;9.00;48.60;;;;;;6278772;22;20082;-93
2021/04/08 11:33:48;;;;;;;3.90;3.50;;;9.10;44.60;;;;;;6234532;22;20011;-93
2021/04/08 11:37:18;;;;;;;4.82;4.15;;;9.10;44.60;;;;;;6278988;22;20011;-91
2021/04/08 11:39:53;;;;;;;8.30;4.28;;;9.00;46.60;;;;;;6184229;23;20009;-92
2021/04/08 11:42:39;;;;;;;5.80;3.60;;;8.60;48.60;;;;;;6160349;23;20025;-93
2021/04/08 11:45:59;;;;;;;4.75;3.03;;;8.30;48.80;;;;;;6258208;22;20537;-93
2021/04/08 11:48:44;;;;;;;4.00;3.58;;;8.10;48.80;;;;;;6211591;22;20032;-92
2021/04/08 11:51:20;;;;;;;6.00;3.83;;;8.10;49.30;;;;;;6277837;22;20000;-92
2021/04/08 11:54:08;;;;;;;;;;;8.00;50.10;;;;;;6252143;22;19999;-91
2021/04/08 11:56:38;;;;;;;3.42;2.75;;;7.80;52.00;;;;;;6277446;22;19903;-91
2021/04/08 11:59:19;;;;;;;3.28;2.17;;;7.50;53.40;;;;;;6276459;22;20339;-92
2021/04/08 12:01:47;;;;;;;4.72;2.60;;;7.30;52.80;;;;;;6277739;22;20073;-93
2021/04/08 12:04:22;;;;;;;5.30;3.13;;;7.20;53.40;;;;;;6276266;22;20029;-92
2021/04/08 12:06:58;;;;;;;4.95;3.22;;;7.20;54.20;;;;;;6276295;22;20000;-91
2021/04/08 12:09:44;;;;;;;3.17;2.67;;;7.20;55.30;;;;;;6277431;22;20027;-91
2021/04/08 12:12:12;;;;;;;4.30;2.88;;;7.40;56.40;;;;;;6274799;22;20435;-93
2021/04/08 12:15:08;;;;;;;3.15;2.03;;;7.50;56.60;;;;;;6277190;22;20023;-93
2021/04/08 12:17:36;;;;;;;3.40;2.17;;;7.70;55.60;;;;;;6281352;22;20026;-92
2021/04/08 12:20:23;;;;;;;3.42;2.10;;;7.80;55.90;;;;;;6279174;22;20418;-91
2021/04/08 12:22:55;;;;;;;2.95;2.47;;;8.00;54.80;;;;;;6282498;22;20011;-93
2021/04/08 12:25:39;;;;;;;5.22;2.80;;;8.10;55.40;;;;;;6281513;22;20000;-91
2021/04/08 12:28:05;;;;;;;4.38;2.25;;;8.20;55.50;;;;;;6285033;22;20008;-92
2021/04/08 12:30:31;;;;;;;4.07;2.80;;;8.40;55.50;;;;;;6297727;22;20014;-91
2021/04/08 12:32:57;;;;;;;3.20;2.47;;;8.60;55.20;;;;;;6300114;22;20075;-91
2021/04/08 12:35:24;;;;;;;3.42;2.70;;;8.80;55.70;;;;;;6301896;22;20038;-92
2021/04/08 12:37:54;;;;;;;3.83;2.45;;;9.00;55.40;;;;;;6300804;22;20044;-90
2021/04/08 12:40:22;;;;;;;5.18;2.40;;;9.10;55.00;;;;;;6297405;22;20023;-92
2021/04/08 12:42:54;;;;;;;6.22;4.50;;;9.20;54.90;;;;;;6283413;22;20117;-92
2021/04/08 12:45:20;;;;;;;5.40;3.28;;;9.40;53.60;;;;;;6280024;22;20312;-91
2021/04/08 12:47:46;;;;;;;4.60;3.65;;;9.60;55.30;;;;;;6279993;22;19999;-92
2021/04/08 12:54:04;;;;;;;5.15;3.80;;;10.30;54.60;;;;;;6290342;22;20011;-91
2021/04/08 12:56:30;;;;;;;6.07;3.85;;;10.80;51.40;;;;;;6288356;22;19996;-91
2021/04/08 12:59:01;;;;;;;3.88;3.40;;;11.20;53.30;;;;;;6296850;22;20004;-89
2021/04/08 13:01:32;;;;;;;6.10;4.18;;;11.60;53.10;;;;;;6295357;22;20008;-90
2021/04/08 13:04:11;;;;;;;6.25;4.50;;;12.00;52.60;;;;;;6296897;22;19996;-90
2021/04/08 13:06:47;;;;;;;6.68;4.00;;;12.40;48.90;;;;;;6287775;22;20086;-92
2021/04/08 13:09:13;;;;;;;6.18;5.20;;;12.90;53.10;;;;;;6280988;22;20035;-92
2021/04/08 13:15:23;;;;;;;8.40;4.15;;;13.50;46.90;;;;;;6281948;22;20011;-90
2021/04/08 13:17:53;;;;;;;5.75;3.90;;;13.70;44.80;;;;;;6336539;22;20022;-90
2021/04/08 13:20:31;;;;;;;4.97;3.63;;;13.70;46.70;;;;;;6344638;22;20014;-92
2021/04/08 13:23:06;;;;;;;5.20;3.80;;;13.70;45.00;;;;;;6347061;22;20378;-91
2021/04/08 13:25:35;;;;;;;5.82;4.30;;;13.60;43.20;;;;;;6316065;22;20011;-93
2021/04/08 13:28:37;;;;;;;4.72;3.95;;;13.50;42.90;;;;;;6339968;22;20007;-93